sensor_id;sensor_type;location;lat;lon;timestamp;P1;durP1;ratioP1;P2;durP2;ratioP2
18449;SDS011;9354;50.194;7.690;2023-07-08T00:00:12;13.57;;;7.03;;
18449;SDS011;9354;50.194;7.690;2023-07-08T00:02:41;21.27;;;7.53;;
18449;SDS011;9354;50.194;7.690;2023-07-08T00:05:09;14.30;;;6.97;;
18449;SDS011;9354;50.194;7.690;2023-07-08T00:07:39;15.57;;;6.90;;
18449;SDS011;9354;50.194;7.690;2023-07-08T00:10:11;17.93;;;6.80;;
18449;SDS011;9354;50.194;7.690;2023-07-08T00:12:41;11.90;;;6.27;;
18449;SDS011;9354;50.194;7.690;2023-07-08T00:15:10;14.90;;;6.80;;
18449;SDS011;9354;50.194;7.690;2023-07-08T00:17:38;13.70;;;6.40;;
18449;SDS011;9354;50.194;7.690;2023-07-08T00:20:09;16.03;;;6.23;;
18449;SDS011;9354;50.194;7.690;2023-07-08T00:22:41;17.13;;;6.87;;
18449;SDS011;9354;50.194;7.690;2023-07-08T00:25:08;14.03;;;6.90;;
18449;SDS011;9354;50.194;7.690;2023-07-08T00:27:36;16.50;;;6.63;;
18449;SDS011;9354;50.194;7.690;2023-07-08T00:32:47;12.70;;;6.43;;
18449;SDS011;9354;50.194;7.690;2023-07-08T00:35:22;13.77;;;6.90;;
18449;SDS011;9354;50.194;7.690;2023-07-08T00:37:54;13.70;;;6.47;;
18449;SDS011;9354;50.194;7.690;2023-07-08T00:40:27;14.13;;;6.23;;
18449;SDS011;9354;50.194;7.690;2023-07-08T00:42:57;16.07;;;6.60;;
18449;SDS011;9354;50.194;7.690;2023-07-08T00:45:32;14.00;;;6.37;;
18449;SDS011;9354;50.194;7.690;2023-07-08T00:48:11;16.03;;;6.90;;
18449;SDS011;9354;50.194;7.690;2023-07-08T00:50:44;14.70;;;6.50;;
18449;SDS011;9354;50.194;7.690;2023-07-08T00:53:20;16.00;;;6.10;;
18449;SDS011;9354;50.194;7.690;2023-07-08T00:55:50;13.70;;;6.87;;
18449;SDS011;9354;50.194;7.690;2023-07-08T00:58:19;17.40;;;6.57;;
18449;SDS011;9354;50.194;7.690;2023-07-08T01:00:49;15.53;;;6.53;;
18449;SDS011;9354;50.194;7.690;2023-07-08T01:03:18;11.77;;;6.00;;
18449;SDS011;9354;50.194;7.690;2023-07-08T01:05:46;13.63;;;7.10;;
18449;SDS011;9354;50.194;7.690;2023-07-08T01:08:15;13.30;;;6.37;;
18449;SDS011;9354;50.194;7.690;2023-07-08T01:10:45;11.57;;;6.23;;
18449;SDS011;9354;50.194;7.690;2023-07-08T01:13:18;12.90;;;6.40;;
18449;SDS011;9354;50.194;7.690;2023-07-08T01:15:47;15.30;;;6.77;;
18449;SDS011;9354;50.194;7.690;2023-07-08T01:18:16;12.73;;;6.33;;
18449;SDS011;9354;50.194;7.690;2023-07-08T01:20:46;13.27;;;6.37;;
18449;SDS011;9354;50.194;7.690;2023-07-08T01:23:15;12.53;;;6.47;;
18449;SDS011;9354;50.194;7.690;2023-07-08T01:25:43;16.33;;;6.43;;
18449;SDS011;9354;50.194;7.690;2023-07-08T01:28:12;11.83;;;5.90;;
18449;SDS011;9354;50.194;7.690;2023-07-08T01:30:40;12.60;;;6.57;;
18449;SDS011;9354;50.194;7.690;2023-07-08T01:33:12;11.00;;;6.27;;
18449;SDS011;9354;50.194;7.690;2023-07-08T01:35:43;13.57;;;6.50;;
18449;SDS011;9354;50.194;7.690;2023-07-08T01:38:12;16.47;;;6.30;;
18449;SDS011;9354;50.194;7.690;2023-07-08T01:40:50;14.00;;;6.50;;
18449;SDS011;9354;50.194;7.690;2023-07-08T01:43:19;12.87;;;6.47;;
18449;SDS011;9354;50.194;7.690;2023-07-08T01:45:47;12.60;;;6.03;;
18449;SDS011;9354;50.194;7.690;2023-07-08T01:48:16;11.60;;;5.93;;
18449;SDS011;9354;50.194;7.690;2023-07-08T01:50:46;13.70;;;6.60;;
18449;SDS011;9354;50.194;7.690;2023-07-08T01:53:26;13.83;;;6.70;;
18449;SDS011;9354;50.194;7.690;2023-07-08T01:55:56;13.23;;;6.47;;
18449;SDS011;9354;50.194;7.690;2023-07-08T01:58:23;13.47;;;6.07;;
18449;SDS011;9354;50.194;7.690;2023-07-08T02:00:51;17.07;;;6.53;;
18449;SDS011;9354;50.194;7.690;2023-07-08T02:03:19;13.43;;;7.23;;
18449;SDS011;9354;50.194;7.690;2023-07-08T02:05:47;15.80;;;6.47;;
18449;SDS011;9354;50.194;7.690;2023-07-08T02:08:14;14.20;;;6.00;;
18449;SDS011;9354;50.194;7.690;2023-07-08T02:10:43;12.93;;;6.30;;
18449;SDS011;9354;50.194;7.690;2023-07-08T02:13:16;12.97;;;6.40;;
18449;SDS011;9354;50.194;7.690;2023-07-08T02:15:44;12.33;;;6.47;;
18449;SDS011;9354;50.194;7.690;2023-07-08T02:18:11;14.43;;;6.70;;
18449;SDS011;9354;50.194;7.690;2023-07-08T02:20:38;15.13;;;6.67;;
18449;SDS011;9354;50.194;7.690;2023-07-08T02:23:06;12.50;;;6.60;;
18449;SDS011;9354;50.194;7.690;2023-07-08T02:25:33;13.47;;;6.60;;
18449;SDS011;9354;50.194;7.690;2023-07-08T02:28:02;13.00;;;6.10;;
18449;SDS011;9354;50.194;7.690;2023-07-08T02:30:30;11.73;;;6.03;;
18449;SDS011;9354;50.194;7.690;2023-07-08T02:32:57;13.03;;;5.60;;
18449;SDS011;9354;50.194;7.690;2023-07-08T02:35:25;13.17;;;6.33;;
18449;SDS011;9354;50.194;7.690;2023-07-08T02:37:54;11.23;;;5.63;;
18449;SDS011;9354;50.194;7.690;2023-07-08T02:40:23;13.97;;;6.27;;
18449;SDS011;9354;50.194;7.690;2023-07-08T02:42:51;12.93;;;6.17;;
18449;SDS011;9354;50.194;7.690;2023-07-08T02:45:20;13.13;;;6.27;;
18449;SDS011;9354;50.194;7.690;2023-07-08T02:47:48;13.17;;;6.03;;
18449;SDS011;9354;50.194;7.690;2023-07-08T02:50:15;14.67;;;6.10;;
18449;SDS011;9354;50.194;7.690;2023-07-08T02:52:44;12.07;;;6.33;;
18449;SDS011;9354;50.194;7.690;2023-07-08T02:55:11;14.57;;;5.83;;
18449;SDS011;9354;50.194;7.690;2023-07-08T02:57:39;11.83;;;6.07;;
18449;SDS011;9354;50.194;7.690;2023-07-08T03:00:07;11.57;;;5.73;;
18449;SDS011;9354;50.194;7.690;2023-07-08T03:02:36;12.87;;;6.30;;
18449;SDS011;9354;50.194;7.690;2023-07-08T03:05:03;14.33;;;6.57;;
18449;SDS011;9354;50.194;7.690;2023-07-08T03:07:32;12.60;;;6.40;;
18449;SDS011;9354;50.194;7.690;2023-07-08T03:09:59;13.40;;;5.93;;
18449;SDS011;9354;50.194;7.690;2023-07-08T03:12:26;11.27;;;5.50;;
18449;SDS011;9354;50.194;7.690;2023-07-08T03:14:54;9.93;;;5.30;;
18449;SDS011;9354;50.194;7.690;2023-07-08T03:17:21;12.50;;;6.17;;
18449;SDS011;9354;50.194;7.690;2023-07-08T03:19:50;10.87;;;5.37;;
18449;SDS011;9354;50.194;7.690;2023-07-08T03:22:17;11.03;;;5.80;;
18449;SDS011;9354;50.194;7.690;2023-07-08T03:24:45;20.17;;;5.53;;
18449;SDS011;9354;50.194;7.690;2023-07-08T03:27:13;8.93;;;5.10;;
18449;SDS011;9354;50.194;7.690;2023-07-08T03:29:41;11.73;;;5.77;;
18449;SDS011;9354;50.194;7.690;2023-07-08T03:32:08;13.50;;;5.13;;
18449;SDS011;9354;50.194;7.690;2023-07-08T03:34:37;10.73;;;5.40;;
18449;SDS011;9354;50.194;7.690;2023-07-08T03:37:06;11.40;;;5.77;;
18449;SDS011;9354;50.194;7.690;2023-07-08T03:39:35;12.27;;;4.80;;
18449;SDS011;9354;50.194;7.690;2023-07-08T03:42:03;13.23;;;5.90;;
18449;SDS011;9354;50.194;7.690;2023-07-08T03:44:31;9.63;;;5.27;;
18449;SDS011;9354;50.194;7.690;2023-07-08T03:46:58;12.53;;;5.70;;
18449;SDS011;9354;50.194;7.690;2023-07-08T03:49:26;12.77;;;5.40;;
18449;SDS011;9354;50.194;7.690;2023-07-08T03:51:53;12.57;;;6.17;;
18449;SDS011;9354;50.194;7.690;2023-07-08T03:54:23;10.13;;;5.80;;
18449;SDS011;9354;50.194;7.690;2023-07-08T03:56:51;9.03;;;4.70;;
18449;SDS011;9354;50.194;7.690;2023-07-08T03:59:18;8.83;;;4.80;;
18449;SDS011;9354;50.194;7.690;2023-07-08T04:01:46;9.97;;;5.20;;
18449;SDS011;9354;50.194;7.690;2023-07-08T04:04:14;13.00;;;5.70;;
18449;SDS011;9354;50.194;7.690;2023-07-08T04:06:42;13.57;;;5.73;;
18449;SDS011;9354;50.194;7.690;2023-07-08T04:09:10;13.20;;;5.63;;
18449;SDS011;9354;50.194;7.690;2023-07-08T04:11:39;12.17;;;5.83;;
18449;SDS011;9354;50.194;7.690;2023-07-08T04:14:07;9.30;;;4.77;;
18449;SDS011;9354;50.194;7.690;2023-07-08T04:16:42;15.03;;;5.87;;
18449;SDS011;9354;50.194;7.690;2023-07-08T04:19:13;16.53;;;5.90;;
18449;SDS011;9354;50.194;7.690;2023-07-08T04:21:42;11.17;;;5.70;;
18449;SDS011;9354;50.194;7.690;2023-07-08T04:24:10;11.80;;;6.33;;
18449;SDS011;9354;50.194;7.690;2023-07-08T04:26:41;12.20;;;5.90;;
18449;SDS011;9354;50.194;7.690;2023-07-08T04:29:10;11.53;;;5.70;;
18449;SDS011;9354;50.194;7.690;2023-07-08T04:31:38;12.53;;;4.93;;
18449;SDS011;9354;50.194;7.690;2023-07-08T04:34:05;23.07;;;6.80;;
18449;SDS011;9354;50.194;7.690;2023-07-08T04:36:32;12.87;;;5.10;;
18449;SDS011;9354;50.194;7.690;2023-07-08T04:39:00;12.00;;;5.10;;
18449;SDS011;9354;50.194;7.690;2023-07-08T04:41:29;12.03;;;5.10;;
18449;SDS011;9354;50.194;7.690;2023-07-08T04:43:57;10.63;;;4.77;;
18449;SDS011;9354;50.194;7.690;2023-07-08T04:46:30;14.13;;;4.90;;
18449;SDS011;9354;50.194;7.690;2023-07-08T04:49:03;9.73;;;4.73;;
18449;SDS011;9354;50.194;7.690;2023-07-08T04:51:31;8.70;;;4.60;;
18449;SDS011;9354;50.194;7.690;2023-07-08T04:53:59;8.60;;;4.63;;
18449;SDS011;9354;50.194;7.690;2023-07-08T04:56:34;13.20;;;5.20;;
18449;SDS011;9354;50.194;7.690;2023-07-08T04:59:05;12.17;;;5.83;;
18449;SDS011;9354;50.194;7.690;2023-07-08T05:01:32;11.17;;;5.40;;
18449;SDS011;9354;50.194;7.690;2023-07-08T05:04:00;10.33;;;5.00;;
18449;SDS011;9354;50.194;7.690;2023-07-08T05:06:27;8.77;;;4.83;;
18449;SDS011;9354;50.194;7.690;2023-07-08T05:08:55;9.83;;;5.10;;
18449;SDS011;9354;50.194;7.690;2023-07-08T05:11:22;10.40;;;5.20;;
18449;SDS011;9354;50.194;7.690;2023-07-08T05:13:49;11.27;;;5.67;;
18449;SDS011;9354;50.194;7.690;2023-07-08T05:16:18;10.97;;;5.70;;
18449;SDS011;9354;50.194;7.690;2023-07-08T05:18:46;12.90;;;6.10;;
18449;SDS011;9354;50.194;7.690;2023-07-08T05:21:14;13.13;;;6.17;;
18449;SDS011;9354;50.194;7.690;2023-07-08T05:23:43;11.63;;;5.73;;
18449;SDS011;9354;50.194;7.690;2023-07-08T05:26:11;12.00;;;6.43;;
18449;SDS011;9354;50.194;7.690;2023-07-08T05:28:38;11.93;;;5.77;;
18449;SDS011;9354;50.194;7.690;2023-07-08T05:31:06;20.20;;;8.07;;
18449;SDS011;9354;50.194;7.690;2023-07-08T05:33:35;12.17;;;6.80;;
18449;SDS011;9354;50.194;7.690;2023-07-08T05:36:02;11.20;;;5.93;;
18449;SDS011;9354;50.194;7.690;2023-07-08T05:38:30;15.30;;;6.03;;
18449;SDS011;9354;50.194;7.690;2023-07-08T05:40:58;11.10;;;5.63;;
18449;SDS011;9354;50.194;7.690;2023-07-08T05:43:26;14.53;;;5.47;;
18449;SDS011;9354;50.194;7.690;2023-07-08T05:45:57;14.77;;;5.87;;
18449;SDS011;9354;50.194;7.690;2023-07-08T05:48:25;10.50;;;5.33;;
18449;SDS011;9354;50.194;7.690;2023-07-08T05:50:54;9.30;;;5.30;;
18449;SDS011;9354;50.194;7.690;2023-07-08T05:53:22;12.63;;;6.43;;
18449;SDS011;9354;50.194;7.690;2023-07-08T05:55:49;10.13;;;5.50;;
18449;SDS011;9354;50.194;7.690;2023-07-08T05:58:17;14.93;;;6.03;;
18449;SDS011;9354;50.194;7.690;2023-07-08T06:00:44;12.07;;;6.53;;
18449;SDS011;9354;50.194;7.690;2023-07-08T06:03:12;12.77;;;6.47;;
18449;SDS011;9354;50.194;7.690;2023-07-08T06:05:39;12.57;;;5.93;;
18449;SDS011;9354;50.194;7.690;2023-07-08T06:08:08;10.03;;;5.00;;
18449;SDS011;9354;50.194;7.690;2023-07-08T06:10:40;10.60;;;5.00;;
18449;SDS011;9354;50.194;7.690;2023-07-08T06:13:08;10.60;;;5.10;;
18449;SDS011;9354;50.194;7.690;2023-07-08T06:15:36;11.20;;;5.53;;
18449;SDS011;9354;50.194;7.690;2023-07-08T06:18:03;10.10;;;5.40;;
18449;SDS011;9354;50.194;7.690;2023-07-08T06:20:31;11.50;;;6.20;;
18449;SDS011;9354;50.194;7.690;2023-07-08T06:22:58;11.07;;;5.23;;
18449;SDS011;9354;50.194;7.690;2023-07-08T06:25:28;11.87;;;6.20;;
18449;SDS011;9354;50.194;7.690;2023-07-08T06:27:55;13.87;;;5.97;;
18449;SDS011;9354;50.194;7.690;2023-07-08T06:30:23;13.47;;;6.47;;
18449;SDS011;9354;50.194;7.690;2023-07-08T06:32:50;12.83;;;6.53;;
18449;SDS011;9354;50.194;7.690;2023-07-08T06:35:17;13.10;;;6.37;;
18449;SDS011;9354;50.194;7.690;2023-07-08T06:37:45;15.80;;;6.07;;
18449;SDS011;9354;50.194;7.690;2023-07-08T06:40:12;13.67;;;5.37;;
18449;SDS011;9354;50.194;7.690;2023-07-08T06:42:41;9.27;;;4.97;;
18449;SDS011;9354;50.194;7.690;2023-07-08T06:45:09;12.87;;;4.67;;
18449;SDS011;9354;50.194;7.690;2023-07-08T06:47:37;9.63;;;4.60;;
18449;SDS011;9354;50.194;7.690;2023-07-08T06:50:05;9.97;;;4.83;;
18449;SDS011;9354;50.194;7.690;2023-07-08T06:52:33;10.57;;;4.60;;
18449;SDS011;9354;50.194;7.690;2023-07-08T06:55:03;9.37;;;4.60;;
18449;SDS011;9354;50.194;7.690;2023-07-08T06:57:32;11.37;;;4.67;;
18449;SDS011;9354;50.194;7.690;2023-07-08T07:00:01;12.93;;;4.60;;
18449;SDS011;9354;50.194;7.690;2023-07-08T07:02:29;9.50;;;4.50;;
18449;SDS011;9354;50.194;7.690;2023-07-08T07:04:57;12.10;;;5.03;;
18449;SDS011;9354;50.194;7.690;2023-07-08T07:07:24;12.37;;;5.93;;
18449;SDS011;9354;50.194;7.690;2023-07-08T07:09:53;11.17;;;5.60;;
18449;SDS011;9354;50.194;7.690;2023-07-08T07:12:20;11.10;;;5.27;;
18449;SDS011;9354;50.194;7.690;2023-07-08T07:14:47;10.80;;;5.40;;
18449;SDS011;9354;50.194;7.690;2023-07-08T07:17:16;9.43;;;5.37;;
18449;SDS011;9354;50.194;7.690;2023-07-08T07:19:44;10.97;;;4.90;;
18449;SDS011;9354;50.194;7.690;2023-07-08T07:22:11;9.50;;;4.80;;
18449;SDS011;9354;50.194;7.690;2023-07-08T07:24:39;10.23;;;4.80;;
18449;SDS011;9354;50.194;7.690;2023-07-08T07:27:06;9.03;;;4.77;;
18449;SDS011;9354;50.194;7.690;2023-07-08T07:29:41;9.40;;;4.70;;
18449;SDS011;9354;50.194;7.690;2023-07-08T07:32:10;10.83;;;4.63;;
18449;SDS011;9354;50.194;7.690;2023-07-08T07:34:39;10.60;;;4.40;;
18449;SDS011;9354;50.194;7.690;2023-07-08T07:37:06;17.40;;;5.30;;
18449;SDS011;9354;50.194;7.690;2023-07-08T07:39:38;11.60;;;4.60;;
18449;SDS011;9354;50.194;7.690;2023-07-08T07:42:06;14.13;;;5.00;;
18449;SDS011;9354;50.194;7.690;2023-07-08T07:44:34;11.10;;;4.80;;
18449;SDS011;9354;50.194;7.690;2023-07-08T07:47:01;9.17;;;4.73;;
18449;SDS011;9354;50.194;7.690;2023-07-08T07:49:29;10.00;;;4.73;;
18449;SDS011;9354;50.194;7.690;2023-07-08T07:51:58;9.87;;;4.77;;
18449;SDS011;9354;50.194;7.690;2023-07-08T07:54:25;10.83;;;4.90;;
18449;SDS011;9354;50.194;7.690;2023-07-08T07:56:53;12.77;;;4.70;;
18449;SDS011;9354;50.194;7.690;2023-07-08T07:59:21;10.57;;;4.40;;
18449;SDS011;9354;50.194;7.690;2023-07-08T08:01:48;9.80;;;4.70;;
18449;SDS011;9354;50.194;7.690;2023-07-08T08:04:16;10.43;;;3.90;;
18449;SDS011;9354;50.194;7.690;2023-07-08T08:06:43;9.10;;;4.47;;
18449;SDS011;9354;50.194;7.690;2023-07-08T08:09:12;8.33;;;3.83;;
18449;SDS011;9354;50.194;7.690;2023-07-08T08:11:39;8.20;;;3.97;;
18449;SDS011;9354;50.194;7.690;2023-07-08T08:14:07;10.00;;;3.87;;
18449;SDS011;9354;50.194;7.690;2023-07-08T08:16:34;8.70;;;4.37;;
18449;SDS011;9354;50.194;7.690;2023-07-08T08:19:01;8.00;;;4.10;;
18449;SDS011;9354;50.194;7.690;2023-07-08T08:21:29;11.97;;;5.00;;
18449;SDS011;9354;50.194;7.690;2023-07-08T08:23:56;8.80;;;4.53;;
18449;SDS011;9354;50.194;7.690;2023-07-08T08:26:27;8.87;;;4.30;;
18449;SDS011;9354;50.194;7.690;2023-07-08T08:28:55;10.63;;;4.13;;
18449;SDS011;9354;50.194;7.690;2023-07-08T08:31:22;10.63;;;4.20;;
18449;SDS011;9354;50.194;7.690;2023-07-08T08:33:50;10.47;;;4.30;;
18449;SDS011;9354;50.194;7.690;2023-07-08T08:36:18;7.77;;;3.80;;
18449;SDS011;9354;50.194;7.690;2023-07-08T08:38:46;10.23;;;4.40;;
18449;SDS011;9354;50.194;7.690;2023-07-08T08:41:14;7.70;;;4.13;;
18449;SDS011;9354;50.194;7.690;2023-07-08T08:43:44;7.47;;;4.00;;
18449;SDS011;9354;50.194;7.690;2023-07-08T08:46:16;7.50;;;3.93;;
18449;SDS011;9354;50.194;7.690;2023-07-08T08:48:51;16.70;;;4.73;;
18449;SDS011;9354;50.194;7.690;2023-07-08T08:51:23;10.37;;;4.67;;
18449;SDS011;9354;50.194;7.690;2023-07-08T08:53:55;10.10;;;4.53;;
18449;SDS011;9354;50.194;7.690;2023-07-08T08:56:25;7.30;;;4.13;;
18449;SDS011;9354;50.194;7.690;2023-07-08T08:58:58;9.07;;;4.27;;
18449;SDS011;9354;50.194;7.690;2023-07-08T09:01:30;9.20;;;4.57;;
18449;SDS011;9354;50.194;7.690;2023-07-08T09:03:59;10.10;;;4.30;;
18449;SDS011;9354;50.194;7.690;2023-07-08T09:06:30;8.53;;;4.00;;
18449;SDS011;9354;50.194;7.690;2023-07-08T09:09:01;11.40;;;4.60;;
18449;SDS011;9354;50.194;7.690;2023-07-08T09:11:36;9.13;;;4.50;;
18449;SDS011;9354;50.194;7.690;2023-07-08T09:14:14;7.13;;;4.50;;
18449;SDS011;9354;50.194;7.690;2023-07-08T09:16:53;12.73;;;4.73;;
18449;SDS011;9354;50.194;7.690;2023-07-08T09:19:29;11.93;;;5.17;;
18449;SDS011;9354;50.194;7.690;2023-07-08T09:21:59;11.33;;;4.60;;
18449;SDS011;9354;50.194;7.690;2023-07-08T09:24:33;9.43;;;4.87;;
18449;SDS011;9354;50.194;7.690;2023-07-08T09:27:07;11.27;;;4.77;;
18449;SDS011;9354;50.194;7.690;2023-07-08T09:29:36;9.73;;;4.80;;
18449;SDS011;9354;50.194;7.690;2023-07-08T09:32:11;11.60;;;5.00;;
18449;SDS011;9354;50.194;7.690;2023-07-08T09:34:43;9.37;;;4.87;;
18449;SDS011;9354;50.194;7.690;2023-07-08T09:37:23;10.17;;;5.00;;
18449;SDS011;9354;50.194;7.690;2023-07-08T09:39:53;10.63;;;4.77;;
18449;SDS011;9354;50.194;7.690;2023-07-08T09:42:21;11.37;;;5.13;;
18449;SDS011;9354;50.194;7.690;2023-07-08T09:44:56;10.10;;;5.03;;
18449;SDS011;9354;50.194;7.690;2023-07-08T09:47:25;9.37;;;4.30;;
18449;SDS011;9354;50.194;7.690;2023-07-08T09:49:57;8.23;;;4.50;;
18449;SDS011;9354;50.194;7.690;2023-07-08T09:52:25;8.60;;;4.67;;
18449;SDS011;9354;50.194;7.690;2023-07-08T09:54:52;8.90;;;4.93;;
18449;SDS011;9354;50.194;7.690;2023-07-08T09:57:25;12.67;;;5.00;;
18449;SDS011;9354;50.194;7.690;2023-07-08T09:59:56;10.37;;;5.10;;
18449;SDS011;9354;50.194;7.690;2023-07-08T10:02:29;8.43;;;4.50;;
18449;SDS011;9354;50.194;7.690;2023-07-08T10:05:00;9.03;;;5.30;;
18449;SDS011;9354;50.194;7.690;2023-07-08T10:07:34;9.93;;;5.23;;
18449;SDS011;9354;50.194;7.690;2023-07-08T10:10:02;12.73;;;5.63;;
18449;SDS011;9354;50.194;7.690;2023-07-08T10:12:35;8.40;;;5.00;;
18449;SDS011;9354;50.194;7.690;2023-07-08T10:15:10;9.47;;;5.00;;
18449;SDS011;9354;50.194;7.690;2023-07-08T10:17:44;9.17;;;4.87;;
18449;SDS011;9354;50.194;7.690;2023-07-08T10:20:12;9.97;;;5.07;;
18449;SDS011;9354;50.194;7.690;2023-07-08T10:22:42;9.07;;;5.43;;
18449;SDS011;9354;50.194;7.690;2023-07-08T10:25:26;10.43;;;5.47;;
18449;SDS011;9354;50.194;7.690;2023-07-08T10:28:03;9.57;;;5.67;;
18449;SDS011;9354;50.194;7.690;2023-07-08T10:30:46;9.53;;;5.13;;
18449;SDS011;9354;50.194;7.690;2023-07-08T10:33:28;10.50;;;5.43;;
18449;SDS011;9354;50.194;7.690;2023-07-08T10:36:19;9.13;;;5.47;;
18449;SDS011;9354;50.194;7.690;2023-07-08T10:38:57;10.00;;;5.47;;
18449;SDS011;9354;50.194;7.690;2023-07-08T10:41:45;12.95;;;5.70;;
18449;SDS011;9354;50.194;7.690;2023-07-08T10:44:20;9.60;;;5.63;;
18449;SDS011;9354;50.194;7.690;2023-07-08T10:47:04;9.00;;;4.93;;
18449;SDS011;9354;50.194;7.690;2023-07-08T10:49:46;12.23;;;6.00;;
18449;SDS011;9354;50.194;7.690;2023-07-08T10:52:25;11.43;;;5.50;;
18449;SDS011;9354;50.194;7.690;2023-07-08T10:55:14;11.32;;;5.28;;
18449;SDS011;9354;50.194;7.690;2023-07-08T10:58:02;8.77;;;5.00;;
18449;SDS011;9354;50.194;7.690;2023-07-08T11:00:47;9.70;;;6.00;;
18449;SDS011;9354;50.194;7.690;2023-07-08T11:03:37;9.30;;;5.47;;
18449;SDS011;9354;50.194;7.690;2023-07-08T11:06:19;10.75;;;5.40;;
18449;SDS011;9354;50.194;7.690;2023-07-08T11:08:52;9.25;;;4.97;;
18449;SDS011;9354;50.194;7.690;2023-07-08T11:11:26;12.18;;;5.55;;
18449;SDS011;9354;50.194;7.690;2023-07-08T11:14:01;11.65;;;5.75;;
18449;SDS011;9354;50.194;7.690;2023-07-08T11:16:33;12.13;;;5.78;;
18449;SDS011;9354;50.194;7.690;2023-07-08T11:19:08;13.82;;;5.60;;
18449;SDS011;9354;50.194;7.690;2023-07-08T11:21:40;10.23;;;5.78;;
18449;SDS011;9354;50.194;7.690;2023-07-08T11:24:12;8.32;;;5.68;;
18449;SDS011;9354;50.194;7.690;2023-07-08T11:26:52;8.48;;;5.15;;
18449;SDS011;9354;50.194;7.690;2023-07-08T11:29:24;10.48;;;5.65;;
18449;SDS011;9354;50.194;7.690;2023-07-08T11:31:56;10.48;;;5.78;;
18449;SDS011;9354;50.194;7.690;2023-07-08T11:34:25;10.88;;;6.10;;
18449;SDS011;9354;50.194;7.690;2023-07-08T11:36:54;8.55;;;5.53;;
18449;SDS011;9354;50.194;7.690;2023-07-08T11:39:26;9.63;;;5.35;;
18449;SDS011;9354;50.194;7.690;2023-07-08T11:42:03;13.50;;;5.90;;
18449;SDS011;9354;50.194;7.690;2023-07-08T11:44:41;11.93;;;5.70;;
18449;SDS011;9354;50.194;7.690;2023-07-08T11:47:15;11.80;;;5.55;;
18449;SDS011;9354;50.194;7.690;2023-07-08T11:49:46;8.50;;;5.25;;
18449;SDS011;9354;50.194;7.690;2023-07-08T11:52:16;9.85;;;5.47;;
18449;SDS011;9354;50.194;7.690;2023-07-08T11:54:45;9.15;;;5.47;;
18449;SDS011;9354;50.194;7.690;2023-07-08T11:57:16;9.30;;;5.80;;
18449;SDS011;9354;50.194;7.690;2023-07-08T11:59:45;10.82;;;5.15;;
18449;SDS011;9354;50.194;7.690;2023-07-08T12:02:13;11.48;;;5.80;;
18449;SDS011;9354;50.194;7.690;2023-07-08T12:04:54;9.10;;;4.70;;
18449;SDS011;9354;50.194;7.690;2023-07-08T12:07:30;8.40;;;5.43;;
18449;SDS011;9354;50.194;7.690;2023-07-08T12:10:00;12.48;;;6.25;;
18449;SDS011;9354;50.194;7.690;2023-07-08T12:12:32;11.73;;;6.07;;
18449;SDS011;9354;50.194;7.690;2023-07-08T12:15:10;13.05;;;5.47;;
18449;SDS011;9354;50.194;7.690;2023-07-08T12:17:42;10.75;;;5.25;;
18449;SDS011;9354;50.194;7.690;2023-07-08T12:20:16;9.45;;;5.78;;
18449;SDS011;9354;50.194;7.690;2023-07-08T12:22:45;10.18;;;5.53;;
18449;SDS011;9354;50.194;7.690;2023-07-08T12:25:13;11.25;;;5.47;;
18449;SDS011;9354;50.194;7.690;2023-07-08T12:27:41;10.73;;;5.20;;
18449;SDS011;9354;50.194;7.690;2023-07-08T12:30:09;12.85;;;5.85;;
18449;SDS011;9354;50.194;7.690;2023-07-08T12:32:38;11.23;;;5.88;;
18449;SDS011;9354;50.194;7.690;2023-07-08T12:35:08;11.48;;;5.32;;
18449;SDS011;9354;50.194;7.690;2023-07-08T12:37:47;9.73;;;5.82;;
18449;SDS011;9354;50.194;7.690;2023-07-08T12:40:15;14.82;;;5.95;;
18449;SDS011;9354;50.194;7.690;2023-07-08T12:42:43;10.48;;;5.07;;
18449;SDS011;9354;50.194;7.690;2023-07-08T12:45:14;12.60;;;5.25;;
18449;SDS011;9354;50.194;7.690;2023-07-08T12:47:44;11.70;;;5.90;;
18449;SDS011;9354;50.194;7.690;2023-07-08T12:50:12;9.75;;;5.22;;
18449;SDS011;9354;50.194;7.690;2023-07-08T12:52:43;11.35;;;5.95;;
18449;SDS011;9354;50.194;7.690;2023-07-08T12:55:12;11.73;;;5.38;;
18449;SDS011;9354;50.194;7.690;2023-07-08T12:57:41;9.55;;;5.60;;
18449;SDS011;9354;50.194;7.690;2023-07-08T13:00:12;9.93;;;5.75;;
18449;SDS011;9354;50.194;7.690;2023-07-08T13:02:44;9.43;;;5.30;;
18449;SDS011;9354;50.194;7.690;2023-07-08T13:05:13;10.68;;;6.07;;
18449;SDS011;9354;50.194;7.690;2023-07-08T13:07:43;13.73;;;4.95;;
18449;SDS011;9354;50.194;7.690;2023-07-08T13:10:17;9.80;;;5.60;;
18449;SDS011;9354;50.194;7.690;2023-07-08T13:12:47;11.77;;;5.45;;
18449;SDS011;9354;50.194;7.690;2023-07-08T13:15:18;12.80;;;5.90;;
18449;SDS011;9354;50.194;7.690;2023-07-08T13:17:49;11.52;;;5.35;;
18449;SDS011;9354;50.194;7.690;2023-07-08T13:20:17;10.73;;;5.00;;
18449;SDS011;9354;50.194;7.690;2023-07-08T13:22:48;10.05;;;5.00;;
18449;SDS011;9354;50.194;7.690;2023-07-08T13:25:20;11.18;;;5.18;;
18449;SDS011;9354;50.194;7.690;2023-07-08T13:27:55;10.30;;;4.90;;
18449;SDS011;9354;50.194;7.690;2023-07-08T13:30:26;12.13;;;5.28;;
18449;SDS011;9354;50.194;7.690;2023-07-08T13:32:55;8.02;;;4.78;;
18449;SDS011;9354;50.194;7.690;2023-07-08T13:35:25;8.30;;;4.72;;
18449;SDS011;9354;50.194;7.690;2023-07-08T13:37:56;10.70;;;5.20;;
18449;SDS011;9354;50.194;7.690;2023-07-08T13:40:26;9.27;;;5.90;;
18449;SDS011;9354;50.194;7.690;2023-07-08T13:42:54;7.60;;;4.57;;
18449;SDS011;9354;50.194;7.690;2023-07-08T13:45:23;11.88;;;5.40;;
18449;SDS011;9354;50.194;7.690;2023-07-08T13:47:58;9.10;;;5.20;;
18449;SDS011;9354;50.194;7.690;2023-07-08T13:50:29;9.32;;;5.22;;
18449;SDS011;9354;50.194;7.690;2023-07-08T13:53:16;10.00;;;5.55;;
18449;SDS011;9354;50.194;7.690;2023-07-08T13:55:55;10.60;;;5.32;;
18449;SDS011;9354;50.194;7.690;2023-07-08T13:58:26;15.85;;;5.85;;
18449;SDS011;9354;50.194;7.690;2023-07-08T14:00:58;9.60;;;5.38;;
18449;SDS011;9354;50.194;7.690;2023-07-08T14:03:26;9.43;;;5.38;;
18449;SDS011;9354;50.194;7.690;2023-07-08T14:05:53;13.07;;;5.20;;
18449;SDS011;9354;50.194;7.690;2023-07-08T14:08:22;13.63;;;5.32;;
18449;SDS011;9354;50.194;7.690;2023-07-08T14:10:49;9.10;;;5.35;;
18449;SDS011;9354;50.194;7.690;2023-07-08T14:13:17;23.05;;;6.22;;
18449;SDS011;9354;50.194;7.690;2023-07-08T14:15:44;10.32;;;5.45;;
18449;SDS011;9354;50.194;7.690;2023-07-08T14:18:12;8.43;;;5.03;;
18449;SDS011;9354;50.194;7.690;2023-07-08T14:20:40;13.48;;;5.22;;
18449;SDS011;9354;50.194;7.690;2023-07-08T14:23:08;12.40;;;5.78;;
18449;SDS011;9354;50.194;7.690;2023-07-08T14:25:39;9.57;;;5.55;;
18449;SDS011;9354;50.194;7.690;2023-07-08T14:28:07;10.63;;;5.13;;
18449;SDS011;9354;50.194;7.690;2023-07-08T14:30:34;7.65;;;4.82;;
18449;SDS011;9354;50.194;7.690;2023-07-08T14:33:08;9.77;;;5.25;;
18449;SDS011;9354;50.194;7.690;2023-07-08T14:35:37;10.23;;;5.20;;
18449;SDS011;9354;50.194;7.690;2023-07-08T14:38:07;10.82;;;5.32;;
18449;SDS011;9354;50.194;7.690;2023-07-08T14:40:37;12.98;;;5.53;;
18449;SDS011;9354;50.194;7.690;2023-07-08T14:43:11;14.75;;;5.82;;
18449;SDS011;9354;50.194;7.690;2023-07-08T14:45:43;11.30;;;5.85;;
18449;SDS011;9354;50.194;7.690;2023-07-08T14:48:14;8.20;;;5.10;;
18449;SDS011;9354;50.194;7.690;2023-07-08T14:50:42;11.18;;;5.10;;
18449;SDS011;9354;50.194;7.690;2023-07-08T14:53:13;13.25;;;5.18;;
18449;SDS011;9354;50.194;7.690;2023-07-08T14:55:42;8.88;;;5.55;;
18449;SDS011;9354;50.194;7.690;2023-07-08T14:58:15;9.45;;;6.00;;
18449;SDS011;9354;50.194;7.690;2023-07-08T15:00:47;10.23;;;5.32;;
18449;SDS011;9354;50.194;7.690;2023-07-08T15:03:15;9.93;;;5.70;;
18449;SDS011;9354;50.194;7.690;2023-07-08T15:05:42;13.32;;;6.13;;
18449;SDS011;9354;50.194;7.690;2023-07-08T15:08:10;11.02;;;5.70;;
18449;SDS011;9354;50.194;7.690;2023-07-08T15:10:37;9.77;;;5.28;;